Flight Track Log - Related Links

Times and Time Zones

All times are in EDT time to prevent confusion due to time zone crossing. See the N71AA flight status page for this flight to view local times or setup timezone preferences in your user account.

Time Position Orientation Groundspeed Altitude Reporting Facility
EDT Latitude Longitude Course Direction KTS MPH feet Rate Location/Type
Thu 08:57:33 PM 55.2667 -131.6500 327° Northwest 120 138 5,500  Level Anchorage Center
Thu 08:58:33 PM 55.2333 -131.6500 180° South 180 207 7,000 1,850 Climbing Anchorage Center
Thu 08:59:33 PM 55.1833 -131.6167 159° South 180 207 9,200 2,050 Climbing Anchorage Center
Thu 09:00:33 PM 55.1667 -131.6833 246° West 210 242 11,100 1,833 Climbing Anchorage Center
Thu 09:01:00 PM 55.1854 -131.7064 327° Northwest  Level FlightAware Approximate
Thu 09:02:00 PM 55.2510 -131.7801 327° Northwest  Level FlightAware Approximate
Thu 09:02:33 PM 55.2500 -131.7833 326° Northwest 180 207 14,700  Level Anchorage Center
Thu 09:03:33 PM 55.3000 -131.8333 330° Northwest 190 219 16,600 1,650 Climbing Anchorage Center
Thu 09:04:33 PM 55.3500 -131.8833 330° Northwest 200 230 18,000 700 Climbing Anchorage Center
Thu 09:05:33 PM 55.4000 -131.9333 330° Northwest 240 276 18,000  Level Anchorage Center
Thu 09:06:33 PM 55.4667 -132.0167 325° Northwest 270 311 18,000  Level Anchorage Center
Thu 09:07:33 PM 55.5333 -132.0833 330° Northwest 270 311 18,000  Level Anchorage Center
Thu 09:08:34 PM 55.6000 -132.1500 331° Northwest 260 299 18,000  Level Anchorage Center
Thu 09:09:34 PM 55.6500 -132.2167 323° Northwest 270 311 18,000  Level Anchorage Center
Thu 09:10:34 PM 55.7167 -132.2833 331° Northwest 270 311 18,000  Level Anchorage Center
Thu 09:11:34 PM 55.7833 -132.3500 331° Northwest 260 299 18,000  Level Anchorage Center
Thu 09:12:34 PM 55.8333 -132.4333 317° Northwest 260 299 18,000  Level Anchorage Center
Thu 09:13:34 PM 55.9000 -132.5000 331° Northwest 270 311 18,000  Level Anchorage Center
Thu 09:14:35 PM 55.9667 -132.5667 331° Northwest 260 299 18,000  Level Anchorage Center
Thu 09:15:35 PM 56.0167 -132.6333 323° Northwest 260 299 18,000  Level Anchorage Center
Thu 09:16:35 PM 56.0833 -132.7167 325° Northwest 260 299 18,000  Level Anchorage Center
Thu 09:18:00 PM 56.1763 -132.8233 327° Northwest  Level FlightAware Approximate
Thu 09:19:10 PM 56.2500 -132.8833 327° Northwest 190 219 18,000  Level Anchorage Center
Thu 09:20:10 PM 56.3000 -132.9500 324° Northwest 270 311 18,000  Level Anchorage Center
Thu 09:21:10 PM 56.3667 -133.0167 331° Northwest 260 299 18,000  Level Anchorage Center
Thu 09:22:10 PM 56.4167 -133.1000 317° Northwest 270 311 18,000  Level Anchorage Center
Thu 09:23:10 PM 56.4833 -133.1667 331° Northwest 260 299 18,000  Level Anchorage Center
Thu 09:25:00 PM 56.6010 -133.3133 326° Northwest  Level FlightAware Approximate
Thu 09:25:30 PM 56.6333 -133.3333 326° Northwest 250 288 18,000  Level Anchorage Center
Thu 09:26:31 PM 56.7000 -133.4167 326° Northwest 260 299 18,000  Level Anchorage Center
Thu 09:27:30 PM 56.7500 -133.4833 324° Northwest 260 299 18,000  Level Anchorage Center
Thu 09:28:30 PM 56.8167 -133.5500 331° Northwest 260 299 18,000  Level Anchorage Center
Thu 09:29:30 PM 56.8667 -133.6333 318° Northwest 260 299 18,000  Level Anchorage Center
Thu 09:30:31 PM 56.9333 -133.7000 331° Northwest 270 311 18,000  Level Anchorage Center
Thu 09:31:31 PM 57.0000 -133.7667 331° Northwest 260 299 18,000  Level Anchorage Center
Thu 09:32:31 PM 57.0500 -133.8333 324° Northwest 260 299 18,000  Level Anchorage Center
Thu 09:33:31 PM 57.1167 -133.9167 326° Northwest 260 299 18,000  Level Anchorage Center
Thu 09:34:31 PM 57.1833 -133.9833 332° Northwest 260 299 18,000  Level Anchorage Center
Thu 09:35:31 PM 57.2333 -134.0667 318° Northwest 270 311 18,000  Level Anchorage Center
Thu 09:36:31 PM 57.3000 -134.1500 326° Northwest 270 311 18,000  Level Anchorage Center
Thu 09:37:31 PM 57.3500 -134.2167 324° Northwest 250 288 18,000  Level Anchorage Center
Thu 09:38:31 PM 57.4167 -134.3000 326° Northwest 260 299 18,000  Level Anchorage Center
Thu 09:39:32 PM 57.4833 -134.3667 332° Northwest 260 299 18,000  Level Anchorage Center
Thu 09:40:31 PM 57.5333 -134.4500 318° Northwest 260 299 18,000  Level Anchorage Center
Thu 09:41:31 PM 57.6000 -134.5167 332° Northwest 260 299 18,000  Level Anchorage Center
Thu 09:42:32 PM 57.6667 -134.6000 326° Northwest 260 299 18,000 -248 Level Anchorage Center
Thu 09:43:32 PM 57.7167 -134.6667 325° Northwest 250 288 17,500 -1,350 Descending Anchorage Center
Thu 09:44:32 PM 57.7833 -134.7500 326° Northwest 270 311 15,300 -2,150 Descending Anchorage Center
Thu 09:45:32 PM 57.8333 -134.8167 325° Northwest 270 311 13,200 -2,000 Descending Anchorage Center
Thu 09:46:32 PM 57.9000 -134.9000 326° Northwest 270 311 11,300 -1,600 Descending Anchorage Center
Thu 09:48:32 PM 58.0167 -135.0500 326° Northwest 230 265 8,400 -1,400 Descending Anchorage Center
Thu 09:49:32 PM 58.0667 -135.1167 325° Northwest 220 253 7,100 -700 Descending Anchorage Center
Thu 09:50:32 PM 58.1167 -135.1833 325° Northwest 190 219 7,000  Descending Anchorage Center
Thu 09:51:32 PM 58.1500 -135.2167 332° Northwest 160 184 7,100 -149 Climbing Anchorage Center
Thu 09:52:33 PM 58.2000 -135.2167 360° North 190 219 6,700 -595 Descending Anchorage Center
Thu 09:53:33 PM 58.2333 -135.1833 28° Northeast 170 196 5,900 -504 Descending Anchorage Center
Thu 09:54:32 PM 58.2833 -135.1333 28° Northeast 160 184 5,700 -100 Descending Anchorage Center
Thu 09:55:33 PM 58.3167 -135.1000 28° Northeast 170 196 5,700 -298 Level Anchorage Center
Thu 09:56:33 PM 58.3500 -135.0333 46° Northeast 180 207 5,100 -1,100 Descending Anchorage Center
Thu 09:57:33 PM 58.3500 -134.9333 90° East 170 196 3,500 -950 Descending Anchorage Center
Thu 09:58:33 PM 58.3500 -134.8667 90° East 120 138 3,200 -700 Descending Anchorage Center
Thu 09:59:33 PM 58.3500 -134.7833 90° East 150 173 2,100 -1,100 Descending Anchorage Center
Thu 10:00:33 PM 58.3500 -134.7000 90° East 140 161 1,000 -694 Descending Anchorage Center
Thu 10:01:34 PM 58.3500 -134.6333 90° East 120 138 700 -295 Descending Anchorage Center
Thu 10:03:00 PM 58.3500 -134.5667 67° East  Level FlightAware Approximate
Thu 10:10:00 PM 58.3550 -134.5763 67° East  Level Estimated
Thu 10:11:00 PM 58.3500 -134.5667 67° East  Level FlightAware Approximate
Thu 10:12:00 PM 58.3550 -134.5763 67° East  Level Estimated

Login

Don't have an account? Register now (free) for customized features, flight alerts, and more!